createdAt,value
2023-05-07T00:01:47.406Z,1.00
2023-05-07T00:04:15.789Z,5.20
2023-05-07T00:06:44.044Z,4.80
2023-05-07T00:09:12.265Z,4.00
2023-05-07T00:11:40.650Z,3.80
2023-05-07T00:14:08.798Z,3.40
2023-05-07T00:16:37.092Z,1.00
2023-05-07T00:19:06.686Z,1.00
2023-05-07T00:21:34.807Z,6.20
2023-05-07T00:24:03.232Z,4.00
2023-05-07T00:26:31.507Z,5.60
2023-05-07T00:28:59.677Z,3.20
2023-05-07T00:31:27.989Z,5.20
2023-05-07T00:33:56.100Z,5.20
2023-05-07T00:36:26.715Z,2.60
2023-05-07T00:38:56.328Z,6.20
2023-05-07T00:41:24.825Z,4.00
2023-05-07T00:43:53.753Z,6.00
2023-05-07T00:46:22.724Z,4.00
2023-05-07T00:48:52.045Z,0.00
2023-05-07T00:51:20.432Z,6.00
2023-05-07T00:53:50.132Z,3.60
2023-05-07T00:56:18.480Z,3.00
2023-05-07T00:58:46.654Z,4.80
2023-05-07T01:01:17.078Z,5.60
2023-05-07T01:03:45.495Z,3.80
2023-05-07T01:06:17.775Z,3.40
2023-05-07T01:08:47.706Z,3.80
2023-05-07T01:11:17.512Z,0.00
2023-05-07T01:13:46.024Z,4.80
2023-05-07T01:16:14.261Z,3.00
2023-05-07T01:18:43.528Z,3.80
2023-05-07T01:21:13.444Z,3.20
2023-05-07T01:23:43.705Z,1.40
2023-05-07T01:26:11.855Z,3.00
2023-05-07T01:28:40.438Z,5.60
2023-05-07T01:31:09.851Z,4.00
2023-05-07T01:33:38.857Z,4.00
2023-05-07T01:36:09.791Z,4.40
2023-05-07T01:38:38.591Z,3.00
2023-05-07T01:41:08.657Z,3.60
2023-05-07T01:43:36.883Z,3.60
2023-05-07T01:46:05.583Z,0.00
2023-05-07T01:48:34.773Z,0.00
2023-05-07T01:51:03.912Z,3.00
2023-05-07T01:53:37.478Z,3.80
2023-05-07T01:56:06.271Z,5.20
2023-05-07T01:58:37.199Z,1.00
2023-05-07T02:01:05.437Z,3.00
2023-05-07T02:03:33.933Z,4.00
2023-05-07T02:06:10.196Z,3.40
2023-05-07T02:08:40.780Z,3.00
2023-05-07T02:11:09.494Z,3.00
2023-05-07T02:13:40.262Z,1.00
2023-05-07T02:16:08.973Z,3.25
2023-05-07T02:18:37.233Z,3.00
2023-05-07T02:21:05.973Z,4.00
2023-05-07T02:23:34.476Z,1.00
2023-05-07T02:26:04.124Z,3.00
2023-05-07T02:28:32.438Z,4.50
2023-05-07T02:31:06.589Z,4.00
2023-05-07T02:33:36.157Z,4.00
2023-05-07T02:36:09.554Z,0.00
2023-05-07T02:38:41.395Z,1.50
2023-05-07T02:41:09.761Z,3.50
2023-05-07T02:43:37.883Z,2.00
2023-05-07T02:46:09.108Z,2.00
2023-05-07T02:48:40.891Z,4.25
2023-05-07T02:51:09.568Z,4.00
2023-05-07T02:53:39.881Z,2.50
2023-05-07T02:56:08.382Z,3.00
2023-05-07T02:58:36.479Z,3.00
2023-05-07T03:01:07.827Z,3.00
2023-05-07T03:03:43.924Z,2.00
2023-05-07T03:06:12.151Z,1.00
2023-05-07T03:08:40.296Z,1.25
2023-05-07T03:11:08.570Z,3.50
2023-05-07T03:13:36.766Z,2.00
2023-05-07T03:16:05.128Z,3.75
2023-05-07T03:18:34.754Z,0.25
2023-05-07T03:21:03.004Z,2.25
2023-05-07T03:23:31.290Z,2.50
2023-05-07T03:25:59.382Z,1.25
2023-05-07T03:28:28.043Z,3.50
2023-05-07T03:31:01.556Z,3.00
2023-05-07T03:33:30.263Z,3.00
2023-05-07T03:36:00.254Z,1.00
2023-05-07T03:38:29.696Z,2.25
2023-05-07T03:40:58.249Z,1.00
2023-05-07T03:43:26.437Z,4.00
2023-05-07T03:46:02.442Z,3.25
2023-05-07T03:48:31.164Z,1.00
2023-05-07T03:51:02.247Z,1.00
2023-05-07T03:53:34.228Z,1.75
2023-05-07T03:56:02.671Z,2.00
2023-05-07T03:58:35.116Z,1.50
2023-05-07T04:01:08.634Z,1.00
2023-05-07T04:03:37.266Z,3.00
2023-05-07T04:06:07.928Z,1.00
2023-05-07T04:08:37.406Z,1.00
2023-05-07T04:11:07.257Z,0.00
2023-05-07T04:13:37.547Z,1.00
2023-05-07T04:16:08.512Z,2.00
2023-05-07T04:18:38.343Z,1.00
2023-05-07T04:21:08.516Z,1.00
2023-05-07T04:23:39.958Z,1.00
2023-05-07T04:26:12.364Z,1.00
2023-05-07T04:28:43.866Z,1.00
2023-05-07T04:31:12.714Z,1.00
2023-05-07T04:33:42.499Z,0.00
2023-05-07T04:36:15.651Z,2.50
2023-05-07T04:38:52.900Z,0.00
2023-05-07T04:41:21.929Z,0.00
2023-05-07T04:43:50.730Z,0.25
2023-05-07T04:46:22.187Z,1.00
2023-05-07T04:48:51.611Z,3.00
2023-05-07T04:51:21.457Z,1.80
2023-05-07T04:53:49.728Z,1.00
2023-05-07T04:56:18.152Z,0.00
2023-05-07T04:58:47.857Z,1.00
2023-05-07T05:01:18.245Z,0.00
2023-05-07T05:03:46.545Z,1.00
2023-05-07T05:06:14.725Z,0.50
2023-05-07T05:08:44.593Z,1.00
2023-05-07T05:11:30.190Z,0.00
2023-05-07T05:13:58.517Z,0.00
2023-05-07T05:16:26.917Z,1.00
2023-05-07T05:18:55.546Z,0.00
2023-05-07T05:21:23.830Z,0.00
2023-05-07T05:23:56.959Z,0.00
2023-05-07T05:26:26.917Z,0.00
2023-05-07T05:29:12.608Z,0.00
2023-05-07T05:31:43.872Z,0.00
2023-05-07T05:34:12.666Z,0.75
2023-05-07T05:36:41.017Z,0.00
2023-05-07T05:39:10.933Z,0.00
2023-05-07T05:41:39.156Z,0.00
2023-05-07T05:44:07.289Z,0.00
2023-05-07T05:46:37.560Z,0.00
2023-05-07T05:49:06.177Z,0.25
2023-05-07T05:51:34.705Z,0.00
2023-05-07T05:54:03.124Z,0.00
2023-05-07T05:56:35.065Z,0.00
2023-05-07T05:59:03.979Z,1.00
2023-05-07T06:01:32.365Z,0.00
2023-05-07T06:04:03.507Z,0.00
2023-05-07T06:06:32.567Z,0.00
2023-05-07T06:09:01.699Z,0.00
2023-05-07T06:11:38.859Z,0.00
2023-05-07T06:14:07.728Z,0.00
2023-05-07T06:16:37.318Z,0.00
2023-05-07T06:19:07.859Z,1.00
2023-05-07T06:21:36.333Z,0.00
2023-05-07T06:24:04.850Z,0.00
2023-05-07T06:26:33.132Z,0.25
2023-05-07T06:29:02.988Z,0.00
2023-05-07T06:31:32.287Z,1.00
2023-05-07T06:34:06.694Z,0.00
2023-05-07T06:36:38.953Z,0.00
2023-05-07T06:39:36.250Z,0.00
2023-05-07T06:42:05.762Z,0.00
2023-05-07T06:44:36.474Z,0.00
2023-05-07T06:47:10.177Z,1.00
2023-05-07T06:49:40.894Z,0.00
2023-05-07T06:52:09.362Z,0.00
2023-05-07T06:54:37.821Z,1.00
2023-05-07T06:57:06.581Z,1.00
2023-05-07T06:59:34.669Z,0.50
2023-05-07T07:02:04.825Z,0.00
2023-05-07T07:04:33.618Z,1.00
2023-05-07T07:07:06.763Z,1.00
2023-05-07T07:09:35.194Z,0.25
2023-05-07T07:12:05.449Z,0.00
2023-05-07T07:14:34.150Z,0.75
2023-05-07T07:17:02.536Z,1.00
2023-05-07T07:19:32.414Z,0.00
2023-05-07T07:22:01.586Z,1.00
2023-05-07T07:24:30.307Z,0.00
2023-05-07T07:27:02.079Z,1.00
2023-05-07T07:29:31.380Z,0.75
2023-05-07T07:31:59.937Z,0.00
2023-05-07T07:34:28.693Z,0.25
2023-05-07T07:36:58.933Z,0.25
2023-05-07T07:39:27.351Z,0.00
2023-05-07T07:41:58.217Z,0.75
2023-05-07T07:44:28.555Z,0.00
2023-05-07T07:47:01.513Z,0.00
2023-05-07T07:49:30.874Z,0.25
2023-05-07T07:52:03.996Z,0.00
2023-05-07T07:54:33.793Z,0.25
2023-05-07T07:57:02.652Z,0.00
2023-05-07T07:59:33.901Z,0.00
2023-05-07T08:02:02.262Z,1.00
2023-05-07T08:04:34.304Z,1.00
2023-05-07T08:07:07.320Z,1.00
2023-05-07T08:09:39.553Z,1.00
2023-05-07T08:12:09.251Z,0.00
2023-05-07T08:14:38.755Z,0.00
2023-05-07T08:17:08.748Z,1.00
2023-05-07T08:19:37.472Z,0.75
2023-05-07T08:22:10.064Z,0.00
2023-05-07T08:24:38.654Z,0.00
2023-05-07T08:27:07.145Z,0.25
2023-05-07T08:29:36.791Z,0.00
2023-05-07T08:32:05.418Z,1.50
2023-05-07T08:34:33.925Z,0.50
2023-05-07T08:37:07.438Z,0.25
2023-05-07T08:39:38.421Z,0.00
2023-05-07T08:42:12.000Z,1.00
2023-05-07T08:44:40.761Z,0.75
2023-05-07T08:47:09.668Z,0.00
2023-05-07T08:49:39.518Z,0.50
2023-05-07T08:52:10.247Z,1.00
2023-05-07T08:54:41.696Z,1.00
2023-05-07T08:57:11.891Z,0.00
2023-05-07T08:59:40.812Z,0.75
2023-05-07T09:02:12.072Z,1.00
2023-05-07T09:04:41.480Z,4.50
2023-05-07T09:07:10.347Z,0.00
2023-05-07T09:09:46.248Z,1.00
2023-05-07T09:12:15.130Z,0.00
2023-05-07T09:14:43.433Z,1.00
2023-05-07T09:17:11.756Z,1.00
2023-05-07T09:19:40.252Z,0.25
2023-05-07T09:22:09.973Z,0.25
2023-05-07T09:24:55.163Z,0.00
2023-05-07T09:27:27.485Z,0.75
2023-05-07T09:29:57.558Z,0.00
2023-05-07T09:32:28.458Z,0.25
2023-05-07T09:34:56.905Z,0.00
2023-05-07T09:37:28.054Z,0.00
2023-05-07T09:39:58.164Z,1.00
2023-05-07T09:42:29.307Z,0.00
2023-05-07T09:45:01.776Z,0.00
2023-05-07T09:47:39.323Z,0.00
2023-05-07T09:50:10.676Z,0.00
2023-05-07T09:52:41.607Z,0.00
2023-05-07T09:55:13.993Z,0.00
2023-05-07T09:57:44.380Z,0.00
2023-05-07T10:00:13.223Z,0.00
2023-05-07T10:02:53.163Z,0.00
2023-05-07T10:05:29.005Z,1.00
2023-05-07T10:08:00.927Z,0.75
2023-05-07T10:10:33.249Z,0.00
2023-05-07T10:13:01.767Z,0.50
2023-05-07T10:15:35.000Z,0.00
2023-05-07T10:18:05.638Z,0.00
2023-05-07T10:20:35.494Z,0.00
2023-05-07T10:23:05.345Z,0.00
2023-05-07T10:25:40.932Z,0.50
2023-05-07T10:28:17.992Z,0.00
2023-05-07T10:30:55.106Z,0.00
2023-05-07T10:33:28.609Z,1.00
2023-05-07T10:35:59.831Z,0.00
2023-05-07T10:38:29.353Z,1.00
2023-05-07T10:41:00.201Z,0.00
2023-05-07T10:43:40.548Z,0.00
2023-05-07T10:46:13.172Z,1.00
2023-05-07T10:49:03.073Z,0.00
2023-05-07T10:51:40.044Z,0.00
2023-05-07T10:54:28.365Z,0.00
2023-05-07T10:57:27.129Z,0.00
2023-05-07T10:59:58.614Z,1.00
2023-05-07T11:02:54.775Z,0.00
2023-05-07T11:05:23.519Z,0.00
2023-05-07T11:08:07.775Z,0.00
2023-05-07T11:10:51.415Z,1.00
2023-05-07T11:13:44.887Z,1.00
2023-05-07T11:16:21.473Z,0.00
2023-05-07T11:18:54.339Z,1.00
2023-05-07T11:21:36.768Z,0.00
2023-05-07T11:24:24.312Z,0.00
2023-05-07T11:26:59.886Z,2.00
2023-05-07T11:29:30.174Z,1.00
2023-05-07T11:32:09.486Z,2.00
2023-05-07T11:34:45.020Z,1.00
2023-05-07T11:37:14.401Z,0.00
2023-05-07T11:39:49.441Z,0.00
2023-05-07T11:42:32.451Z,1.00
2023-05-07T11:45:01.061Z,1.00
2023-05-07T11:47:32.805Z,0.00
2023-05-07T11:50:05.350Z,0.00
2023-05-07T11:52:34.539Z,1.00
2023-05-07T11:55:04.684Z,0.25
2023-05-07T11:57:35.421Z,2.00
2023-05-07T12:00:05.123Z,1.00
2023-05-07T12:02:43.850Z,0.00
2023-05-07T12:05:12.400Z,2.00
2023-05-07T12:07:40.866Z,0.50
2023-05-07T12:10:09.667Z,0.00
2023-05-07T12:12:41.473Z,1.00
2023-05-07T12:15:11.531Z,0.00
2023-05-07T12:17:40.260Z,1.00
2023-05-07T12:20:10.782Z,1.00
2023-05-07T12:22:39.179Z,0.25
2023-05-07T12:25:07.978Z,1.00
2023-05-07T12:27:38.931Z,1.25
2023-05-07T12:30:07.590Z,1.00
2023-05-07T12:32:38.077Z,1.00
2023-05-07T12:35:08.243Z,1.00
2023-05-07T12:37:37.893Z,1.00
2023-05-07T12:40:07.370Z,1.75
2023-05-07T12:42:37.595Z,1.25
2023-05-07T12:45:15.944Z,0.00
2023-05-07T12:47:46.173Z,1.00
2023-05-07T12:50:15.198Z,1.00
2023-05-07T12:52:45.148Z,1.00
2023-05-07T12:55:15.909Z,1.00
2023-05-07T12:57:45.191Z,0.00
2023-05-07T13:00:14.011Z,2.00
2023-05-07T13:02:42.920Z,0.00
2023-05-07T13:05:11.264Z,1.00
2023-05-07T13:07:39.913Z,1.00
2023-05-07T13:10:10.876Z,0.25
2023-05-07T13:12:39.221Z,1.00
2023-05-07T13:15:07.919Z,1.00
2023-05-07T13:17:36.252Z,0.50
2023-05-07T13:20:04.878Z,1.00
2023-05-07T13:22:34.213Z,1.00
2023-05-07T13:25:02.381Z,2.00
2023-05-07T13:27:36.707Z,2.50
2023-05-07T13:30:05.998Z,1.00
2023-05-07T13:32:34.409Z,2.00
2023-05-07T13:35:02.687Z,0.00
2023-05-07T13:37:32.317Z,2.00
2023-05-07T13:40:00.522Z,2.00
2023-05-07T13:42:28.684Z,0.00
2023-05-07T13:44:59.245Z,2.50
2023-05-07T13:47:27.924Z,3.00
2023-05-07T13:49:56.200Z,2.00
2023-05-07T13:52:24.868Z,1.00
2023-05-07T13:54:53.904Z,2.50
2023-05-07T13:57:22.139Z,1.00
2023-05-07T13:59:50.742Z,1.00
2023-05-07T14:02:21.903Z,2.00
2023-05-07T14:04:50.139Z,2.00
2023-05-07T14:07:19.147Z,2.75
2023-05-07T14:09:47.652Z,2.00
2023-05-07T14:12:15.905Z,2.00
2023-05-07T14:14:44.085Z,0.00
2023-05-07T14:17:12.438Z,2.00
2023-05-07T14:19:42.489Z,2.50
2023-05-07T14:22:12.155Z,2.00
2023-05-07T14:24:41.002Z,3.00
2023-05-07T14:27:09.305Z,2.00
2023-05-07T14:29:37.469Z,3.00
2023-05-07T14:32:06.290Z,2.50
2023-05-07T14:34:34.823Z,2.00
2023-05-07T14:37:04.510Z,2.00
2023-05-07T14:39:32.887Z,2.25
2023-05-07T14:42:01.210Z,2.00
2023-05-07T14:44:30.572Z,4.50
2023-05-07T14:47:03.402Z,1.00
2023-05-07T14:49:32.153Z,2.25
2023-05-07T14:52:01.186Z,2.00
2023-05-07T14:54:31.448Z,2.50
2023-05-07T14:56:59.872Z,3.00
2023-05-07T14:59:28.668Z,0.50
2023-05-07T15:01:57.233Z,2.00
2023-05-07T15:04:26.135Z,1.00
2023-05-07T15:06:55.070Z,0.00
2023-05-07T15:09:23.265Z,1.00
2023-05-07T15:11:53.026Z,1.00
2023-05-07T15:14:23.197Z,0.75
2023-05-07T15:16:52.051Z,0.50
2023-05-07T15:19:20.227Z,1.00
2023-05-07T15:21:49.108Z,1.00
2023-05-07T15:24:17.427Z,1.00
2023-05-07T15:26:45.594Z,0.00
2023-05-07T15:29:16.126Z,0.00
2023-05-07T15:31:44.334Z,1.00
2023-05-07T15:34:12.758Z,1.00
2023-05-07T15:36:40.953Z,2.00
2023-05-07T15:39:09.334Z,1.00
2023-05-07T15:41:38.098Z,1.50
2023-05-07T15:44:06.616Z,0.00
2023-05-07T15:46:36.504Z,1.00
2023-05-07T15:49:06.146Z,1.25
2023-05-07T15:51:36.846Z,1.75
2023-05-07T15:54:05.357Z,0.00
2023-05-07T15:56:34.098Z,1.75
2023-05-07T15:59:02.409Z,0.50
2023-05-07T16:01:31.534Z,0.25
2023-05-07T16:04:02.001Z,0.00
2023-05-07T16:06:31.507Z,2.25
2023-05-07T16:09:01.875Z,1.00
2023-05-07T16:11:31.606Z,1.25
2023-05-07T16:14:01.555Z,1.00
2023-05-07T16:16:30.664Z,1.50
2023-05-07T16:19:04.056Z,2.50
2023-05-07T16:21:41.106Z,1.00
2023-05-07T16:24:10.014Z,1.00
2023-05-07T16:26:38.389Z,1.75
2023-05-07T16:29:07.180Z,2.00
2023-05-07T16:31:35.798Z,1.50
2023-05-07T16:34:04.104Z,1.25
2023-05-07T16:36:32.587Z,2.00
2023-05-07T16:39:02.209Z,1.00
2023-05-07T16:41:30.473Z,2.75
2023-05-07T16:43:59.416Z,1.00
2023-05-07T16:46:27.893Z,2.75
2023-05-07T16:48:56.422Z,2.50
2023-05-07T16:51:25.086Z,2.00
2023-05-07T16:53:53.494Z,4.00
2023-05-07T16:56:23.610Z,4.00
2023-05-07T16:58:52.792Z,2.50
2023-05-07T17:01:21.879Z,5.00
2023-05-07T17:03:50.935Z,4.50
2023-05-07T17:06:19.664Z,5.00
2023-05-07T17:08:48.684Z,4.75
2023-05-07T17:11:17.403Z,3.50
2023-05-07T17:13:48.774Z,4.75
2023-05-07T17:16:17.303Z,5.00
2023-05-07T17:18:45.856Z,2.50
2023-05-07T17:21:14.117Z,7.25
2023-05-07T17:23:43.196Z,6.00
2023-05-07T17:26:13.743Z,6.50
2023-05-07T17:28:43.046Z,8.00
2023-05-07T17:31:13.882Z,4.50
2023-05-07T17:33:42.859Z,7.25
2023-05-07T17:36:14.302Z,8.00
2023-05-07T17:38:42.785Z,11.00
2023-05-07T17:41:11.036Z,8.00
2023-05-07T17:43:39.223Z,8.50
2023-05-07T17:46:09.783Z,5.50
2023-05-07T17:48:39.900Z,10.00
2023-05-07T17:51:08.853Z,7.50
2023-05-07T17:53:37.916Z,9.00
2023-05-07T17:56:09.301Z,8.00
2023-05-07T17:58:51.784Z,8.00
2023-05-07T18:01:27.007Z,8.00
2023-05-07T18:03:56.659Z,10.50
2023-05-07T18:06:25.193Z,14.00
2023-05-07T18:08:54.575Z,17.00
2023-05-07T18:11:24.358Z,18.20
2023-05-07T18:13:52.626Z,16.80
2023-05-07T18:16:20.784Z,13.60
2023-05-07T18:18:48.978Z,23.00
2023-05-07T18:21:19.485Z,37.60
2023-05-07T18:23:47.832Z,27.80
2023-05-07T18:26:16.091Z,21.00
2023-05-07T18:28:44.332Z,17.20
2023-05-07T18:31:12.581Z,16.00
2023-05-07T18:33:40.673Z,9.60
2023-05-07T18:36:08.887Z,13.80
2023-05-07T18:38:39.205Z,13.00
2023-05-07T18:41:07.502Z,13.00
2023-05-07T18:43:35.791Z,10.00
2023-05-07T18:46:04.167Z,11.25
2023-05-07T18:48:32.304Z,9.25
2023-05-07T18:51:19.374Z,10.50
2023-05-07T18:53:48.865Z,9.25
2023-05-07T18:56:16.969Z,10.50
2023-05-07T18:58:45.193Z,12.00
2023-05-07T19:01:13.503Z,9.50
2023-05-07T19:03:41.792Z,10.00
2023-05-07T19:06:09.952Z,12.00
2023-05-07T19:08:38.081Z,6.80
2023-05-07T19:11:26.211Z,13.00
2023-05-07T19:13:55.762Z,14.20
2023-05-07T19:16:24.187Z,1.80
2023-05-07T19:18:52.574Z,24.80
2023-05-07T19:21:21.651Z,36.00
2023-05-07T19:23:51.326Z,34.00
2023-05-07T19:26:21.321Z,40.40
2023-05-07T19:29:01.680Z,37.00
2023-05-07T19:31:40.186Z,30.00
2023-05-07T19:34:08.544Z,21.40
2023-05-07T19:36:38.266Z,17.00
2023-05-07T19:39:06.560Z,14.20
2023-05-07T19:41:34.710Z,14.80
2023-05-07T19:44:04.260Z,14.00
2023-05-07T19:46:32.449Z,15.40
2023-05-07T19:49:01.491Z,13.00
2023-05-07T19:51:32.553Z,12.60
2023-05-07T19:54:01.154Z,4.40
2023-05-07T19:56:29.496Z,10.00
2023-05-07T19:58:57.914Z,1.00
2023-05-07T20:01:28.983Z,11.20
2023-05-07T20:03:57.449Z,12.00
2023-05-07T20:06:25.800Z,9.00
2023-05-07T20:08:53.909Z,10.00
2023-05-07T20:11:22.923Z,0.00
2023-05-07T20:13:51.117Z,5.60
2023-05-07T20:16:19.357Z,7.40
2023-05-07T20:18:49.077Z,10.00
2023-05-07T20:21:17.414Z,9.20
2023-05-07T20:23:46.183Z,10.00
2023-05-07T20:26:14.423Z,8.20
2023-05-07T20:28:42.630Z,6.50
2023-05-07T20:31:10.898Z,8.60
2023-05-07T20:33:41.179Z,6.00
2023-05-07T20:36:12.300Z,9.00
2023-05-07T20:38:40.447Z,6.00
2023-05-07T20:41:09.009Z,9.00
2023-05-07T20:43:38.032Z,5.20
2023-05-07T20:46:07.790Z,8.20
2023-05-07T20:48:36.107Z,7.00
2023-05-07T20:51:04.823Z,8.50
2023-05-07T20:53:34.559Z,7.00
2023-05-07T20:56:02.684Z,6.80
2023-05-07T20:58:30.872Z,6.00
2023-05-07T21:00:59.157Z,9.67
2023-05-07T21:03:27.368Z,6.50
2023-05-07T21:05:56.517Z,7.00
2023-05-07T21:08:24.961Z,5.20
2023-05-07T21:10:55.030Z,7.00
2023-05-07T21:13:23.901Z,10.80
2023-05-07T21:15:52.293Z,16.00
2023-05-07T21:18:20.610Z,12.40
2023-05-07T21:20:49.420Z,12.40
2023-05-07T21:23:17.568Z,12.40
2023-05-07T21:25:47.408Z,8.60
2023-05-07T21:28:16.930Z,9.00
2023-05-07T21:30:45.101Z,7.80
2023-05-07T21:33:13.364Z,8.20
2023-05-07T21:35:41.557Z,7.00
2023-05-07T21:38:09.803Z,9.00
2023-05-07T21:40:37.957Z,7.00
2023-05-07T21:43:06.414Z,7.40
2023-05-07T21:45:35.979Z,6.20
2023-05-07T21:48:04.206Z,4.00
2023-05-07T21:50:32.421Z,7.00
2023-05-07T21:53:00.541Z,8.20
2023-05-07T21:55:28.684Z,3.80
2023-05-07T21:58:05.107Z,4.00
2023-05-07T22:00:35.489Z,4.00
2023-05-07T22:03:03.726Z,7.00
2023-05-07T22:05:31.963Z,6.00
2023-05-07T22:08:00.128Z,0.00
2023-05-07T22:10:28.221Z,5.20
2023-05-07T22:12:56.354Z,6.00
2023-05-07T22:15:24.530Z,6.50
2023-05-07T22:17:54.097Z,3.50
2023-05-07T22:20:22.235Z,6.50
2023-05-07T22:22:52.569Z,1.00
2023-05-07T22:25:21.840Z,5.00
2023-05-07T22:27:50.311Z,4.00
2023-05-07T22:30:18.828Z,6.00
2023-05-07T22:32:46.991Z,6.00
2023-05-07T22:35:16.588Z,6.40
2023-05-07T22:37:44.763Z,5.60
2023-05-07T22:40:13.461Z,3.40
2023-05-07T22:42:41.864Z,6.40
2023-05-07T22:45:10.627Z,7.00
2023-05-07T22:47:38.780Z,7.00
2023-05-07T22:50:07.511Z,7.00
2023-05-07T22:52:37.151Z,3.00
2023-05-07T22:55:05.433Z,7.00
2023-05-07T22:57:33.868Z,6.40
2023-05-07T23:00:02.254Z,6.00
2023-05-07T23:02:35.841Z,7.00
2023-05-07T23:05:04.102Z,3.80
2023-05-07T23:07:34.489Z,8.60
2023-05-07T23:10:16.355Z,10.00
2023-05-07T23:12:49.260Z,6.60
2023-05-07T23:15:17.884Z,8.20
2023-05-07T23:17:46.862Z,8.20
2023-05-07T23:20:15.587Z,6.60
2023-05-07T23:22:43.704Z,7.00
2023-05-07T23:25:13.261Z,4.00
2023-05-07T23:27:41.464Z,6.00
2023-05-07T23:30:10.418Z,9.20
2023-05-07T23:32:38.619Z,10.00
2023-05-07T23:35:07.600Z,9.60
2023-05-07T23:37:35.829Z,6.60
2023-05-07T23:40:04.203Z,7.00
2023-05-07T23:42:34.005Z,7.40
2023-05-07T23:45:02.119Z,6.60
2023-05-07T23:47:33.592Z,3.60
2023-05-07T23:50:01.886Z,7.00
2023-05-07T23:52:30.308Z,4.00
2023-05-07T23:54:58.429Z,6.00
2023-05-07T23:57:26.648Z,4.00
2023-05-07T23:59:56.274Z,7.00
